createdAt,value
2022-09-20T00:02:11.632Z,100890.89
2022-09-20T00:05:48.485Z,100893.00
2022-09-20T00:09:25.298Z,100897.91
2022-09-20T00:13:02.116Z,100898.44
2022-09-20T00:16:41.226Z,100905.64
2022-09-20T00:20:15.629Z,100905.64
2022-09-20T00:23:53.245Z,100906.89
2022-09-20T00:27:29.084Z,100907.75
2022-09-20T00:31:06.364Z,100912.85
2022-09-20T00:35:00.708Z,100914.96
2022-09-20T00:38:19.113Z,100908.13
2022-09-20T00:41:55.970Z,100904.80
2022-09-20T00:45:33.814Z,100904.80
2022-09-20T00:49:21.643Z,100911.30
2022-09-20T00:52:51.694Z,100919.05
2022-09-20T00:56:31.690Z,100930.98
2022-09-20T00:59:59.856Z,100940.11
2022-09-20T01:03:39.594Z,100944.67
2022-09-20T01:07:17.177Z,100941.35
2022-09-20T01:10:51.169Z,100942.75
2022-09-20T01:14:27.572Z,100941.34
2022-09-20T01:18:06.981Z,100936.42
2022-09-20T01:21:41.341Z,100936.60
2022-09-20T01:25:39.195Z,100932.21
2022-09-20T01:29:09.791Z,100927.65
2022-09-20T01:33:28.715Z,100928.54
2022-09-20T01:36:37.076Z,100927.83
2022-09-20T01:40:16.452Z,100926.08
2022-09-20T01:47:17.824Z,100918.17
2022-09-20T01:51:10.692Z,100920.63
2022-09-20T01:55:16.258Z,100926.77
2022-09-20T01:59:07.197Z,100930.98
2022-09-20T02:02:22.178Z,100926.60
2022-09-20T02:06:13.705Z,100926.06
2022-09-20T02:10:04.265Z,100928.88
2022-09-20T02:13:15.692Z,100928.52
2022-09-20T02:16:50.106Z,100934.66
2022-09-20T02:20:33.721Z,100937.45
2022-09-20T02:24:15.446Z,100929.21
2022-09-20T02:28:16.460Z,100933.59
2022-09-20T02:31:28.905Z,100935.86
2022-09-20T02:35:05.798Z,100937.45
2022-09-20T02:39:01.756Z,100937.95
2022-09-20T02:42:17.449Z,100940.56
2022-09-20T02:49:38.377Z,100952.47
2022-09-20T02:53:21.275Z,100953.35
2022-09-20T02:56:56.396Z,100957.37
2022-09-20T03:00:14.973Z,100960.02
2022-09-20T03:04:14.166Z,100961.96
2022-09-20T03:07:43.550Z,100959.00
2022-09-20T03:12:15.274Z,100956.03
2022-09-20T03:15:48.201Z,100957.80
2022-09-20T03:23:35.109Z,100955.68
2022-09-20T03:27:07.577Z,100955.50
2022-09-20T03:30:50.824Z,100960.06
2022-09-20T03:34:41.104Z,100963.56
2022-09-20T03:38:36.871Z,100964.42
2022-09-20T03:42:02.432Z,100967.56
2022-09-20T03:45:34.071Z,100971.27
2022-09-20T03:49:04.872Z,100979.52
2022-09-20T03:52:40.087Z,100984.61
2022-09-20T03:56:24.370Z,100992.52
2022-09-20T03:59:59.109Z,101003.41
2022-09-20T04:03:29.302Z,101002.34
2022-09-20T04:07:21.629Z,101002.34
2022-09-20T04:10:57.735Z,100998.98
2022-09-20T04:14:48.954Z,100997.96
2022-09-20T04:18:28.738Z,100999.73
2022-09-20T04:21:56.294Z,101001.67
2022-09-20T04:25:24.092Z,101002.20
2022-09-20T04:29:03.342Z,101003.44
2022-09-20T04:33:08.550Z,101000.98
2022-09-20T04:36:54.862Z,101005.73
2022-09-20T04:40:45.842Z,101006.98
2022-09-20T04:44:29.931Z,101006.98
2022-09-20T04:47:42.789Z,101015.92
2022-09-20T04:51:38.388Z,101021.02
2022-09-20T04:55:16.139Z,101022.97
2022-09-20T04:58:42.407Z,101029.64
2022-09-20T05:02:10.056Z,101035.61
2022-09-20T05:06:24.624Z,101039.13
2022-09-20T05:09:30.037Z,101037.01
2022-09-20T05:13:16.965Z,101037.20
2022-09-20T05:17:08.263Z,101041.59
2022-09-20T05:20:34.418Z,101043.86
2022-09-20T05:24:17.011Z,101051.41
2022-09-20T05:27:51.854Z,101052.48
2022-09-20T05:31:17.942Z,101055.10
2022-09-20T05:35:17.248Z,101058.27
2022-09-20T05:38:40.998Z,101060.52
2022-09-20T05:42:39.738Z,101061.73
2022-09-20T05:45:58.330Z,101063.66
2022-09-20T05:49:18.717Z,101065.79
2022-09-20T05:52:57.977Z,101072.45
2022-09-20T05:57:07.606Z,101075.25
2022-09-20T06:00:24.660Z,101078.97
2022-09-20T06:04:08.594Z,101083.52
2022-09-20T06:08:18.850Z,101081.25
2022-09-20T06:11:40.054Z,101085.29
2022-09-20T06:15:21.915Z,101092.48
2022-09-20T06:18:34.652Z,101088.98
2022-09-20T06:22:31.473Z,101093.20
2022-09-20T06:25:51.491Z,101098.09
2022-09-20T06:29:31.404Z,101098.64
2022-09-20T06:33:20.834Z,101099.52
2022-09-20T06:36:58.543Z,101099.11
2022-09-20T06:40:56.348Z,101103.33
2022-09-20T06:44:00.977Z,101105.92
2022-09-20T06:47:36.857Z,101106.29
2022-09-20T06:51:09.977Z,101110.35
2022-09-20T06:54:53.938Z,101116.11
2022-09-20T06:58:23.288Z,101118.27
2022-09-20T07:02:00.735Z,101125.88
2022-09-20T07:05:36.735Z,101129.77
2022-09-20T07:09:14.067Z,101133.08
2022-09-20T07:12:50.432Z,101135.88
2022-09-20T07:16:27.552Z,101137.79
2022-09-20T07:20:04.287Z,101139.34
2022-09-20T07:23:40.883Z,101142.55
2022-09-20T07:27:17.753Z,101145.80
2022-09-20T07:30:54.551Z,101148.03
2022-09-20T07:34:30.968Z,101150.52
2022-09-20T07:38:08.839Z,101156.69
2022-09-20T07:41:48.691Z,101164.27
2022-09-20T07:45:21.764Z,101175.73
2022-09-20T07:48:58.106Z,101180.95
2022-09-20T07:52:35.141Z,101179.03
2022-09-20T07:56:15.199Z,101176.68
2022-09-20T07:59:48.840Z,101180.02
2022-09-20T08:03:26.740Z,101185.27
2022-09-20T08:07:02.444Z,101182.98
2022-09-20T08:10:41.432Z,101184.51
2022-09-20T08:14:18.012Z,101183.85
2022-09-20T08:17:52.978Z,101192.29
2022-09-20T08:21:33.521Z,101196.45
2022-09-20T08:25:07.264Z,101197.77
2022-09-20T08:28:44.537Z,101200.81
2022-09-20T08:32:20.553Z,101205.20
2022-09-20T08:35:57.646Z,101206.41
2022-09-20T08:40:04.206Z,101218.98
2022-09-20T08:43:12.191Z,101223.52
2022-09-20T08:46:50.252Z,101225.65
2022-09-20T08:50:24.781Z,101230.31
2022-09-20T08:54:01.616Z,101232.27
2022-09-20T08:57:37.795Z,101227.48
2022-09-20T09:01:26.548Z,101227.27
2022-09-20T09:04:53.078Z,101222.09
2022-09-20T09:08:38.955Z,101219.08
2022-09-20T09:12:05.570Z,101224.43
2022-09-20T09:15:43.861Z,101220.25
2022-09-20T09:19:34.544Z,101225.67
2022-09-20T09:23:11.630Z,101227.95
2022-09-20T09:26:40.919Z,101230.89
2022-09-20T09:30:21.387Z,101237.55
2022-09-20T09:33:46.287Z,101240.61
2022-09-20T09:37:31.270Z,101241.02
2022-09-20T09:41:05.585Z,101246.83
2022-09-20T09:44:35.707Z,101241.82
2022-09-20T09:48:28.351Z,101244.55
2022-09-20T09:52:24.839Z,101247.41
2022-09-20T09:56:23.881Z,101252.05
2022-09-20T10:00:01.304Z,101256.30
2022-09-20T10:03:32.886Z,101260.19
2022-09-20T10:06:52.469Z,101263.33
2022-09-20T10:10:45.994Z,101267.14
2022-09-20T10:14:05.620Z,101268.55
2022-09-20T10:17:43.709Z,101266.64
2022-09-20T10:21:45.677Z,101266.25
2022-09-20T10:25:32.298Z,101263.73
2022-09-20T10:28:58.638Z,101266.20
2022-09-20T10:32:37.534Z,101270.13
2022-09-20T10:36:09.092Z,101271.83
2022-09-20T10:39:27.361Z,101276.09
2022-09-20T10:43:15.828Z,101284.42
2022-09-20T10:46:51.965Z,101282.79
2022-09-20T10:51:03.850Z,101294.48
2022-09-20T10:54:33.652Z,101297.83
2022-09-20T11:05:12.988Z,101305.63
2022-09-20T11:08:49.332Z,101305.31
2022-09-20T11:12:42.829Z,101305.54
2022-09-20T11:16:00.491Z,101308.49
2022-09-20T11:20:06.194Z,101316.21
2022-09-20T11:23:28.121Z,101323.86
2022-09-20T11:27:07.190Z,101324.48
2022-09-20T11:30:42.078Z,101329.96
2022-09-20T11:34:30.041Z,101331.02
2022-09-20T11:37:53.031Z,101332.91
2022-09-20T11:45:01.944Z,101340.29
2022-09-20T11:49:07.958Z,101341.79
2022-09-20T11:52:35.258Z,101345.46
2022-09-20T11:56:18.014Z,101350.54
2022-09-20T11:59:35.964Z,101351.71
2022-09-20T12:03:41.158Z,101354.94
2022-09-20T12:07:36.497Z,101359.61
2022-09-20T12:10:40.201Z,101365.68
2022-09-20T12:14:27.124Z,101370.98
2022-09-20T12:17:49.892Z,101369.82
2022-09-20T12:21:27.562Z,101376.71
2022-09-20T12:25:21.741Z,101384.88
2022-09-20T12:28:52.445Z,101384.65
2022-09-20T12:32:39.848Z,101391.27
2022-09-20T12:36:00.010Z,101389.34
2022-09-20T12:39:33.077Z,101393.60
2022-09-20T12:43:19.638Z,101393.71
2022-09-20T12:46:51.824Z,101395.83
2022-09-20T12:50:41.671Z,101402.35
2022-09-20T12:54:09.504Z,101403.17
2022-09-20T12:57:36.143Z,101410.48
2022-09-20T13:01:27.719Z,101405.83
2022-09-20T13:04:56.014Z,101409.11
2022-09-20T13:08:30.420Z,101410.26
2022-09-20T13:12:02.805Z,101409.63
2022-09-20T13:15:39.744Z,101410.56
2022-09-20T13:19:30.703Z,101406.73
2022-09-20T13:22:57.127Z,101408.16
2022-09-20T13:27:00.334Z,101402.89
2022-09-20T13:30:32.969Z,101402.91
2022-09-20T13:33:42.724Z,101406.12
2022-09-20T13:37:23.821Z,101406.87
2022-09-20T13:41:15.793Z,101411.84
2022-09-20T13:44:34.753Z,101411.34
2022-09-20T13:48:10.365Z,101413.66
2022-09-20T13:51:48.695Z,101417.02
2022-09-20T13:55:26.413Z,101417.20
2022-09-20T13:59:05.454Z,101420.30
2022-09-20T14:02:57.544Z,101423.67
2022-09-20T14:06:16.181Z,101418.93
2022-09-20T14:09:51.778Z,101422.96
2022-09-20T14:13:28.471Z,101428.46
2022-09-20T14:17:09.218Z,101424.44
2022-09-20T14:20:43.922Z,101426.59
2022-09-20T14:24:37.414Z,101423.27
2022-09-20T14:28:16.226Z,101429.11
2022-09-20T14:31:35.063Z,101430.91
2022-09-20T14:35:23.046Z,101428.95
2022-09-20T14:38:47.532Z,101438.43
2022-09-20T14:42:29.236Z,101439.25
2022-09-20T14:46:02.253Z,101444.85
2022-09-20T14:49:43.058Z,101445.55
2022-09-20T14:53:15.133Z,101448.54
2022-09-20T14:56:50.612Z,101451.02
2022-09-20T15:00:25.719Z,101454.94
2022-09-20T15:04:19.139Z,101458.48
2022-09-20T15:07:39.493Z,101461.83
2022-09-20T15:11:19.119Z,101466.60
2022-09-20T15:14:52.996Z,101473.15
2022-09-20T15:18:37.340Z,101474.39
2022-09-20T15:22:06.633Z,101479.48
2022-09-20T15:25:43.316Z,101476.27
2022-09-20T15:29:20.037Z,101477.87
2022-09-20T15:33:02.220Z,101481.93
2022-09-20T15:36:33.641Z,101485.11
2022-09-20T15:40:12.065Z,101488.48
2022-09-20T15:43:47.411Z,101490.11
2022-09-20T15:47:24.107Z,101494.05
2022-09-20T15:51:06.993Z,101500.10
2022-09-20T15:54:38.353Z,101502.80
2022-09-20T15:58:15.094Z,101508.80
2022-09-20T16:01:52.027Z,101504.42
2022-09-20T16:05:28.284Z,101505.52
2022-09-20T16:09:06.512Z,101510.83
2022-09-20T16:12:41.598Z,101514.91
2022-09-20T16:16:18.454Z,101518.81
2022-09-20T16:19:55.150Z,101527.29
2022-09-20T16:23:31.740Z,101531.55
2022-09-20T16:27:09.943Z,101539.67
2022-09-20T16:30:55.785Z,101537.58
2022-09-20T16:34:28.516Z,101538.64
2022-09-20T16:37:59.041Z,101542.73
2022-09-20T16:41:36.099Z,101542.02
2022-09-20T16:45:15.956Z,101547.31
2022-09-20T16:48:53.856Z,101555.24
2022-09-20T16:52:26.619Z,101555.58
2022-09-20T16:56:07.992Z,101558.04
2022-09-20T16:59:41.138Z,101557.50
2022-09-20T17:03:17.100Z,101557.69
2022-09-20T17:06:53.665Z,101563.33
2022-09-20T17:10:30.704Z,101567.91
2022-09-20T17:14:07.870Z,101570.89
2022-09-20T17:17:44.018Z,101581.63
2022-09-20T17:21:22.343Z,101582.16
2022-09-20T17:24:58.203Z,101591.49
2022-09-20T17:28:41.834Z,101596.06
2022-09-20T17:32:11.142Z,101596.79
2022-09-20T17:35:52.250Z,101602.05
2022-09-20T17:39:25.049Z,101604.87
2022-09-20T17:43:01.233Z,101599.05
2022-09-20T17:46:40.766Z,101595.88
2022-09-20T17:50:15.604Z,101597.99
2022-09-20T17:53:53.764Z,101597.81
2022-09-20T17:57:29.550Z,101601.52
2022-09-20T18:01:12.854Z,101607.86
2022-09-20T18:04:42.963Z,101610.85
2022-09-20T18:08:19.191Z,101615.08
2022-09-20T18:12:00.403Z,101621.77
2022-09-20T18:15:36.743Z,101623.70
2022-09-20T18:19:11.869Z,101630.58
2022-09-20T18:22:49.033Z,101638.30
2022-09-20T18:26:25.970Z,101635.30
2022-09-20T18:30:00.248Z,101642.54
2022-09-20T18:33:37.012Z,101644.11
2022-09-20T18:37:14.951Z,101652.20
2022-09-20T18:41:03.563Z,101653.10
2022-09-20T18:44:28.616Z,101650.45
2022-09-20T18:48:04.391Z,101652.92
2022-09-20T18:51:40.756Z,101662.95
2022-09-20T18:55:17.585Z,101663.48
2022-09-20T18:58:56.710Z,101665.58
2022-09-20T19:03:12.075Z,101671.56
2022-09-20T19:06:31.159Z,101681.44
2022-09-20T19:10:37.982Z,101679.49
2022-09-20T19:14:06.943Z,101678.42
2022-09-20T19:17:24.732Z,101686.36
2022-09-20T19:20:53.567Z,101683.18
2022-09-20T19:24:35.372Z,101686.90
2022-09-20T19:28:10.716Z,101693.60
2022-09-20T19:31:43.516Z,101694.83
2022-09-20T19:35:28.644Z,101696.59
2022-09-20T19:39:18.461Z,101695.18
2022-09-20T19:42:56.792Z,101698.16
2022-09-20T19:46:17.318Z,101703.92
2022-09-20T19:50:10.334Z,101706.45
2022-09-20T19:53:28.296Z,101713.31
2022-09-20T19:57:02.158Z,101712.08
2022-09-20T20:00:38.092Z,101721.92
2022-09-20T20:04:14.683Z,101719.99
2022-09-20T20:08:15.119Z,101725.45
2022-09-20T20:12:05.846Z,101733.37
2022-09-20T20:15:26.443Z,101740.21
2022-09-20T20:19:01.903Z,101742.64
2022-09-20T20:22:29.622Z,101747.89
2022-09-20T20:26:21.099Z,101738.53
2022-09-20T20:29:34.386Z,101738.17
2022-09-20T20:33:16.504Z,101736.39
2022-09-20T20:36:48.496Z,101735.00
2022-09-20T20:40:25.014Z,101738.34
2022-09-20T20:44:06.095Z,101741.35
2022-09-20T20:47:42.963Z,101742.06
2022-09-20T20:51:18.406Z,101749.62
2022-09-20T20:54:51.819Z,101749.08
2022-09-20T20:58:35.591Z,101757.38
2022-09-20T21:02:07.955Z,101764.23
2022-09-20T21:05:42.139Z,101770.23
2022-09-20T21:09:19.060Z,101777.09
2022-09-20T21:13:01.652Z,101777.44
2022-09-20T21:16:35.852Z,101775.52
2022-09-20T21:20:10.294Z,101777.08
2022-09-20T21:23:48.325Z,101779.36
2022-09-20T21:27:23.011Z,101778.14
2022-09-20T21:31:04.287Z,101783.77
2022-09-20T21:34:36.640Z,101785.52
2022-09-20T21:38:13.519Z,101791.17
2022-09-20T21:41:49.932Z,101795.92
2022-09-20T21:45:29.723Z,101796.98
2022-09-20T21:49:05.908Z,101794.50
2022-09-20T21:52:40.709Z,101797.65
2022-09-20T21:56:17.709Z,101798.00
2022-09-20T21:59:53.996Z,101800.30
2022-09-20T22:03:35.532Z,101793.60
2022-09-20T22:07:07.263Z,101799.58
2022-09-20T22:11:11.161Z,101802.91
2022-09-20T22:14:44.628Z,101801.16
2022-09-20T22:18:20.411Z,101798.19
2022-09-20T22:21:57.391Z,101797.67
2022-09-20T22:25:34.742Z,101799.80
2022-09-20T22:29:11.581Z,101798.40
2022-09-20T22:32:47.852Z,101796.84
2022-09-20T22:36:32.580Z,101798.28
2022-09-20T22:40:01.414Z,101797.40
2022-09-20T22:43:38.579Z,101797.39
2022-09-20T22:47:15.291Z,101800.56
2022-09-20T22:50:51.692Z,101803.36
2022-09-20T22:54:28.632Z,101807.55
2022-09-20T22:58:05.396Z,101808.94
2022-09-20T23:01:45.063Z,101805.07
2022-09-20T23:05:18.912Z,101807.36
2022-09-20T23:09:01.389Z,101804.54
2022-09-20T23:12:32.541Z,101805.60
2022-09-20T23:16:21.452Z,101810.30
2022-09-20T23:19:46.480Z,101815.88
2022-09-20T23:23:23.710Z,101817.58
2022-09-20T23:27:00.066Z,101810.83
2022-09-20T23:30:36.326Z,101807.63
2022-09-20T23:34:13.916Z,101809.52
2022-09-20T23:37:50.013Z,101817.59
2022-09-20T23:41:29.240Z,101815.63
2022-09-20T23:45:03.500Z,101823.36
2022-09-20T23:48:44.445Z,101823.36
2022-09-20T23:52:17.034Z,101826.89
2022-09-20T23:55:53.913Z,101827.40
2022-09-20T23:59:31.125Z,101827.58
